< < Back
Terminal Aerodrome Forecast


Current Version              Previous Versions:   1  2  3  4  5  6  7  8  9  

Terminal Aerodrome Forecast

655
FTUS42 KFFC 301737
TAFCSG
TAF
KCSG 301737Z 3018/3118 01006KT P6SM FEW040 SCT050 BKN070
      TEMPO 3020/3024 TSRA BKN060CB
     FM310000 25007KT P6SM SCT060
     FM311000 00000KT 4SM BR SCT035
     FM311200 24003KT P6SM BKN035 PROB30 3115/3118 SHRA OVC025=



Latest METAR

474
SAUS70 KWBC 302200 RRA
MTRCSG
METAR KCSG 302151Z 36008KT 10SM FEW049 FEW090 34/21 A2999 RMK AO2 LTG
DSNT ALQDS SLP148 T03390211


USA.gov is the U.S. government's official web portal to all federal, state and local government web resources and services.